Stephen M. White — WCU6542 — position and weather

sailwx.info

Track history (hours):
 
Tides and Currents Weather Stations Pressure Air Temp Water Temp Dewpoint Dewpoint Depression Visibility Wind Speed Wind Dir Waves Ship Positions

Stephen M. White

Owner: LOS ANGELES, CITY OF, SAN PEDRO, CA. More information available from US FCC via Universal Licensing System and Coast Guard Vessel Documentation Center.

Last reported at 2014-Oct-21 04:21 UTC. Time now 2014-Oct-21 05:30 UTC.
Position N 33°43' W 118°16'.

Length 20 m.

Type: Pilot. MMSI: 367049470.

Date/timePositionNaut miles runAvg speedWind from/ knotsBaromVisibWave heightAir tempDewpointWater temp
2014-Oct-21 04:21N 33°43' W 118°16'2 0.9
2014-Oct-21 01:33N 33°44' W 118°13'3 0.2
2014-Oct-20 14:26N 33°44' W 118°17'1 0.8
2014-Oct-20 13:10N 33°43' W 118°16'1 1.1
2014-Oct-20 12:13N 33°42' W 118°15'1 1.5
2014-Oct-20 11:15N 33°43' W 118°16'0 0.1
2014-Oct-20 08:32N 33°43' W 118°16'0 0.1
2014-Oct-20 05:24N 33°43' W 118°16'0 0.3
2014-Oct-20 04:28N 33°43' W 118°16'0 0.2
2014-Oct-20 02:31N 33°43' W 118°16'1 1.6
2014-Oct-20 01:33N 33°42' W 118°15'1 1.3
2014-Oct-20 00:22N 33°43' W 118°16'0 0.0
2014-Oct-19 23:33N 33°43' W 118°16'0 0.0
2014-Oct-19 22:10N 33°43' W 118°16'0 0.0
2014-Oct-18 13:19N 33°43' W 118°16'0 0.0
2014-Oct-18 11:29N 33°43' W 118°16'0 0.0
2014-Oct-18 01:15N 33°43' W 118°16'1 0.6
2014-Oct-18 00:11N 33°43' W 118°16'1 1.2
2014-Oct-17 23:13N 33°44' W 118°16'0 0.3
2014-Oct-17 22:07N 33°44' W 118°16'1 1.0
2014-Oct-17 21:27N 33°44' W 118°17'2 0.3
2014-Oct-17 13:07N 33°42' W 118°15'1 0.3
2014-Oct-17 10:32N 33°43' W 118°15'1 0.1
2014-Oct-16 22:28N 33°43' W 118°16'0 0.0
2014-Oct-16 21:33N 33°43' W 118°16'1 0.1
2014-Oct-16 13:13N 33°43' W 118°16'0 0.0
2014-Oct-16 00:24N 33°43' W 118°15'1 0.0
2014-Oct-15 12:06N 33°42' W 118°15'1 0.1
2014-Oct-14 23:21N 33°43' W 118°16'3 0.9
2014-Oct-14 20:30N 33°43' W 118°13'3 0.8
2014-Oct-14 17:09N 33°43' W 118°16'0 0.0
2014-Oct-14 15:15N 33°43' W 118°16'0 0.0
2014-Oct-14 14:29N 33°43' W 118°16'0 0.0
2014-Oct-14 13:34N 33°43' W 118°16'0 0.0
2014-Oct-14 12:32N 33°43' W 118°16'2 2.0
2014-Oct-14 11:33N 33°42' W 118°15'2 1.9
2014-Oct-14 10:33N 33°43' W 118°16'0 0.0
2014-Oct-14 09:28N 33°43' W 118°16'0 0.0
2014-Oct-14 08:33N 33°43' W 118°16'0 0.0
2014-Oct-14 07:33N 33°43' W 118°16'0 0.0
2014-Oct-14 06:34N 33°43' W 118°16'0 0.0
2014-Oct-14 05:33N 33°43' W 118°16'0 0.0
2014-Oct-14 04:33N 33°43' W 118°16'0 0.0
2014-Oct-14 03:33N 33°43' W 118°16'0 0.0
2014-Oct-14 02:33N 33°43' W 118°16'0 0.0
2014-Oct-14 01:29N 33°43' W 118°16'0 0.0
2014-Oct-14 00:33N 33°43' W 118°16'0 0.0
2014-Oct-13 23:33N 33°43' W 118°16'0 0.0
2014-Oct-13 22:33N 33°43' W 118°16'0 0.0
2014-Oct-13 21:33N 33°43' W 118°16'0 0.0
2014-Oct-13 20:33N 33°43' W 118°16'0 0.0
2014-Oct-13 19:33N 33°43' W 118°16'0 0.0
2014-Oct-13 18:33N 33°43' W 118°16'0 0.0
2014-Oct-13 17:33N 33°43' W 118°16'0 0.0
2014-Oct-13 16:33N 33°43' W 118°16'0 0.0
2014-Oct-13 15:33N 33°43' W 118°16'0 0.0
2014-Oct-13 14:33N 33°43' W 118°16'0 0.0
2014-Oct-13 13:33N 33°43' W 118°16'0 0.0
2014-Oct-13 12:33N 33°43' W 118°16'0 0.0
2014-Oct-13 11:33N 33°43' W 118°16'0 0.0
2014-Oct-13 10:33N 33°43' W 118°16'0 0.0
2014-Oct-13 09:31N 33°43' W 118°16'0 0.0
2014-Oct-13 08:31N 33°43' W 118°16'0 0.0
2014-Oct-13 07:33N 33°43' W 118°16'0 0.0
2014-Oct-13 06:33N 33°43' W 118°16'0 0.0
2014-Oct-13 05:33N 33°43' W 118°16'0 0.0
2014-Oct-13 04:33N 33°43' W 118°16'0 0.0
2014-Oct-13 03:32N 33°43' W 118°16'0 0.0
2014-Oct-13 02:33N 33°43' W 118°16'1 0.5
2014-Oct-13 01:31N 33°43' W 118°16'1 0.6
2014-Oct-13 00:33N 33°43' W 118°16'0 0.0
2014-Oct-12 23:34N 33°43' W 118°16'0 0.0
2014-Oct-12 22:33N 33°43' W 118°16'3 3.2
2014-Oct-12 21:33N 33°40' W 118°15'2 1.7
2014-Oct-12 20:33N 33°39' W 118°13'5 4.9
2014-Oct-12 19:33N 33°43' W 118°16'0 0.0
2014-Oct-12 18:33N 33°43' W 118°16'0 0.0
2014-Oct-12 17:33N 33°43' W 118°16'0 0.0
2014-Oct-12 16:33N 33°43' W 118°16'0 0.0
2014-Oct-12 15:33N 33°43' W 118°16'0 0.0
2014-Oct-12 14:33N 33°43' W 118°16'0 0.0
2014-Oct-12 13:33N 33°43' W 118°16'0 0.0
2014-Oct-12 12:33N 33°43' W 118°16'0 0.0
2014-Oct-12 11:17N 33°43' W 118°16'0 0.0
2014-Oct-12 10:33N 33°43' W 118°16'0 0.1
2014-Oct-12 09:34N 33°43' W 118°16'1 1.3
2014-Oct-12 08:33N 33°42' W 118°15'1 1.4
2014-Oct-12 07:33N 33°43' W 118°16'0 0.0
2014-Oct-12 06:33N 33°43' W 118°16'0 0.0
2014-Oct-12 05:31N 33°43' W 118°16'0 0.0
2014-Oct-12 04:33N 33°43' W 118°16'2 1.7
2014-Oct-12 03:30N 33°42' W 118°15'2 1.8
2014-Oct-12 02:29N 33°43' W 118°16'0 0.0
2014-Oct-12 01:33N 33°43' W 118°16'0 0.0
2014-Oct-12 00:33N 33°43' W 118°16'0 0.0
2014-Oct-11 23:34N 33°43' W 118°16'0 0.0
2014-Oct-11 22:33N 33°43' W 118°16'0 0.0
2014-Oct-11 21:21N 33°43' W 118°16'5 5.0
2014-Oct-11 20:24N 33°39' W 118°13'5 5.5
2014-Oct-11 19:31N 33°43' W 118°16'0 0.0
2014-Oct-11 18:28N 33°43' W 118°16'0 0.0
2014-Oct-11 16:28N 33°43' W 118°16'1 0.3
2014-Oct-11 14:33N 33°44' W 118°17'1 0.5
2014-Oct-11 13:21N 33°43' W 118°16'1 0.4
2014-Oct-11 10:27N 33°43' W 118°15'1 0.5
2014-Oct-11 08:33N 33°43' W 118°16'0 0.0
2014-Oct-11 07:34N 33°43' W 118°16'0 0.0
2014-Oct-11 06:33N 33°43' W 118°16'0 0.0
2014-Oct-11 05:24N 33°43' W 118°16'  
Track history (hours):
 
Tides and Currents Weather Stations Pressure Air Temp Water Temp Dewpoint Dewpoint Depression Visibility Wind Speed Wind Dir Waves Ship Positions

Stephen M. White

Owner: LOS ANGELES, CITY OF, SAN PEDRO, CA. More information available from US FCC via Universal Licensing System and Coast Guard Vessel Documentation Center.

Last reported at 2014-Oct-21 04:21 UTC. Time now 2014-Oct-21 05:30 UTC.
Position N 33°43' W 118°16'.

Length 20 m.

Type: Pilot. MMSI: 367049470.

Date/timePositionNaut miles runAvg speedWind from/ knotsBaromVisibWave heightAir tempDewpointWater temp
2014-Oct-21 04:21N 33°43' W 118°16'2 0.9
2014-Oct-21 01:33N 33°44' W 118°13'3 0.2
2014-Oct-20 14:26N 33°44' W 118°17'1 0.8
2014-Oct-20 13:10N 33°43' W 118°16'1 1.1
2014-Oct-20 12:13N 33°42' W 118°15'1 1.5
2014-Oct-20 11:15N 33°43' W 118°16'0 0.1
2014-Oct-20 08:32N 33°43' W 118°16'0 0.1
2014-Oct-20 05:24N 33°43' W 118°16'0 0.3
2014-Oct-20 04:28N 33°43' W 118°16'0 0.2
2014-Oct-20 02:31N 33°43' W 118°16'1 1.6
2014-Oct-20 01:33N 33°42' W 118°15'1 1.3
2014-Oct-20 00:22N 33°43' W 118°16'0 0.0
2014-Oct-19 23:33N 33°43' W 118°16'0 0.0
2014-Oct-19 22:10N 33°43' W 118°16'0 0.0
2014-Oct-18 13:19N 33°43' W 118°16'0 0.0
2014-Oct-18 11:29N 33°43' W 118°16'0 0.0
2014-Oct-18 01:15N 33°43' W 118°16'1 0.6
2014-Oct-18 00:11N 33°43' W 118°16'1 1.2
2014-Oct-17 23:13N 33°44' W 118°16'0 0.3
2014-Oct-17 22:07N 33°44' W 118°16'1 1.0
2014-Oct-17 21:27N 33°44' W 118°17'2 0.3
2014-Oct-17 13:07N 33°42' W 118°15'1 0.3
2014-Oct-17 10:32N 33°43' W 118°15'1 0.1
2014-Oct-16 22:28N 33°43' W 118°16'0 0.0
2014-Oct-16 21:33N 33°43' W 118°16'1 0.1
2014-Oct-16 13:13N 33°43' W 118°16'0 0.0
2014-Oct-16 00:24N 33°43' W 118°15'1 0.0
2014-Oct-15 12:06N 33°42' W 118°15'1 0.1
2014-Oct-14 23:21N 33°43' W 118°16'3 0.9
2014-Oct-14 20:30N 33°43' W 118°13'3 0.8
2014-Oct-14 17:09N 33°43' W 118°16'0 0.0
2014-Oct-14 15:15N 33°43' W 118°16'0 0.0
2014-Oct-14 14:29N 33°43' W 118°16'0 0.0
2014-Oct-14 13:34N 33°43' W 118°16'0 0.0
2014-Oct-14 12:32N 33°43' W 118°16'2 2.0
2014-Oct-14 11:33N 33°42' W 118°15'2 1.9
2014-Oct-14 10:33N 33°43' W 118°16'0 0.0
2014-Oct-14 09:28N 33°43' W 118°16'0 0.0
2014-Oct-14 08:33N 33°43' W 118°16'0 0.0
2014-Oct-14 07:33N 33°43' W 118°16'0 0.0
2014-Oct-14 06:34N 33°43' W 118°16'0 0.0
2014-Oct-14 05:33N 33°43' W 118°16'0 0.0
2014-Oct-14 04:33N 33°43' W 118°16'0 0.0
2014-Oct-14 03:33N 33°43' W 118°16'0 0.0
2014-Oct-14 02:33N 33°43' W 118°16'0 0.0
2014-Oct-14 01:29N 33°43' W 118°16'0 0.0
2014-Oct-14 00:33N 33°43' W 118°16'0 0.0
2014-Oct-13 23:33N 33°43' W 118°16'0 0.0
2014-Oct-13 22:33N 33°43' W 118°16'0 0.0
2014-Oct-13 21:33N 33°43' W 118°16'0 0.0
2014-Oct-13 20:33N 33°43' W 118°16'0 0.0
2014-Oct-13 19:33N 33°43' W 118°16'0 0.0
2014-Oct-13 18:33N 33°43' W 118°16'0 0.0
2014-Oct-13 17:33N 33°43' W 118°16'0 0.0
2014-Oct-13 16:33N 33°43' W 118°16'0 0.0
2014-Oct-13 15:33N 33°43' W 118°16'0 0.0
2014-Oct-13 14:33N 33°43' W 118°16'0 0.0
2014-Oct-13 13:33N 33°43' W 118°16'0 0.0
2014-Oct-13 12:33N 33°43' W 118°16'0 0.0
2014-Oct-13 11:33N 33°43' W 118°16'0 0.0
2014-Oct-13 10:33N 33°43' W 118°16'0 0.0
2014-Oct-13 09:31N 33°43' W 118°16'0 0.0
2014-Oct-13 08:31N 33°43' W 118°16'0 0.0
2014-Oct-13 07:33N 33°43' W 118°16'0 0.0
2014-Oct-13 06:33N 33°43' W 118°16'0 0.0
2014-Oct-13 05:33N 33°43' W 118°16'0 0.0
2014-Oct-13 04:33N 33°43' W 118°16'0 0.0
2014-Oct-13 03:32N 33°43' W 118°16'0 0.0
2014-Oct-13 02:33N 33°43' W 118°16'1 0.5
2014-Oct-13 01:31N 33°43' W 118°16'1 0.6
2014-Oct-13 00:33N 33°43' W 118°16'0 0.0
2014-Oct-12 23:34N 33°43' W 118°16'0 0.0
2014-Oct-12 22:33N 33°43' W 118°16'3 3.2
2014-Oct-12 21:33N 33°40' W 118°15'2 1.7
2014-Oct-12 20:33N 33°39' W 118°13'5 4.9
2014-Oct-12 19:33N 33°43' W 118°16'0 0.0
2014-Oct-12 18:33N 33°43' W 118°16'0 0.0
2014-Oct-12 17:33N 33°43' W 118°16'0 0.0
2014-Oct-12 16:33N 33°43' W 118°16'0 0.0
2014-Oct-12 15:33N 33°43' W 118°16'0 0.0
2014-Oct-12 14:33N 33°43' W 118°16'0 0.0
2014-Oct-12 13:33N 33°43' W 118°16'0 0.0
2014-Oct-12 12:33N 33°43' W 118°16'0 0.0
2014-Oct-12 11:17N 33°43' W 118°16'0 0.0
2014-Oct-12 10:33N 33°43' W 118°16'0 0.1
2014-Oct-12 09:34N 33°43' W 118°16'1 1.3
2014-Oct-12 08:33N 33°42' W 118°15'1 1.4
2014-Oct-12 07:33N 33°43' W 118°16'0 0.0
2014-Oct-12 06:33N 33°43' W 118°16'0 0.0
2014-Oct-12 05:31N 33°43' W 118°16'0 0.0
2014-Oct-12 04:33N 33°43' W 118°16'2 1.7
2014-Oct-12 03:30N 33°42' W 118°15'2 1.8
2014-Oct-12 02:29N 33°43' W 118°16'0 0.0
2014-Oct-12 01:33N 33°43' W 118°16'0 0.0
2014-Oct-12 00:33N 33°43' W 118°16'0 0.0
2014-Oct-11 23:34N 33°43' W 118°16'0 0.0
2014-Oct-11 22:33N 33°43' W 118°16'0 0.0
2014-Oct-11 21:21N 33°43' W 118°16'5 5.0
2014-Oct-11 20:24N 33°39' W 118°13'5 5.5
2014-Oct-11 19:31N 33°43' W 118°16'0 0.0
2014-Oct-11 18:28N 33°43' W 118°16'0 0.0
2014-Oct-11 16:28N 33°43' W 118°16'1 0.3
2014-Oct-11 14:33N 33°44' W 118°17'1 0.5
2014-Oct-11 13:21N 33°43' W 118°16'1 0.4
2014-Oct-11 10:27N 33°43' W 118°15'1 0.5
2014-Oct-11 08:33N 33°43' W 118°16'0 0.0
2014-Oct-11 07:34N 33°43' W 118°16'0 0.0
2014-Oct-11 06:33N 33°43' W 118°16'0 0.0
2014-Oct-11 05:24N 33°43' W 118°16'  

Dump ship's entire track history